Chiloquin, OR (97604)

12:40 AM PDT del 26 Ottobre 2014 (GMT -0700)
RAWS CHILOQUIN OR US | Change Station
CLOSE
Current Station
Stazione meteo personale
Location: Sprague River, OR
Altitudine: 4419 ft
Stazioni meteo nelle vicinanze

Alt. 4419 ft 42.58 °N, 121.89 °W | Updated 44 minutes ago

Parzialmente nuvoloso
Parzialmente nuvoloso
38 °F
Sembra 34 °F
N
5
Vento Variabile Vento da SO
Gusts 20.0 mph

Oggi
Massima -- | Minima -- °F
--% Possibilità di precip.
Ieri
Massima -- | Minima -- °F
Precip. -- in
7:33 AM 6:08 PM
Luna crescente, 6% visible
Pressione 30.05 in
Visibilità 10.0 miglia
Nuvole Alcuni 2400 ft
Raffreddamento del vento 34 °F
Punto di rugiada 34 °F
Umidità 86%
Piovosità 0.24 in
Spessore del manto nevoso Non disponibile.
Raggi UV 0 fuori da 12
Polline .40 fuori da 12
Qualità dell'aria Non disponibile.
Flu Activity Sporadic
SPECI KLMT 260707Z AUTO 25012KT 10SM FEW024 06/02 A3005 RMK AO2 T00560022

More Conditions Fewer Conditions

Pressione 30.05 in
Visibilità 10.0 miglia
Nuvole Alcuni 2400 ft
Raffreddamento del vento 34 °F
Punto di rugiada 34 °F
Umidità 86%
Piovosità 0.24 in
Spessore del manto nevoso Non disponibile.
Raggi UV 0 fuori da 12
Polline .40 fuori da 12
Qualità dell'aria Non disponibile.
Flu Activity Sporadic
SPECI KLMT 260707Z AUTO 25012KT 10SM FEW024 06/02 A3005 RMK AO2 T00560022

More Conditions Fewer Conditions

10-Day Weather Forecast

Almanac

Astronomia

Oct. 26, 2014 Alba Tramonto
Ora attuale 07:33 PDT 18:08 PDT
Crepuscolo civile 07:04 PDT 18:37 PDT
Crepuscolo nautico 06:31 PDT 19:10 PDT
Crepuscolo astronomico 05:59 PDT 19:42 PDT
Luna 10:19 PDT 20:22 PDT
Estensione della luce visibile 11h 32m
Lunghezza del giorno
10h 34m
Tomorrow will be 2m 39s shorter.
Luna crescente, 6% of the Moon is Illuminated
Oggi
Luna crescente
Ott 30
Primo quarto
Nov 6
Luna piena
Nov 14
Ultimo quarto
Nov 22
Nuovo

Gli estremi di oggi

State Highs State Lows

Community

WunderPhotos

Upload Photos

1,765,115 foto caricate!

Nearby

Profondità neve

Stazione Profondità Altitudine
Sevenmile Marsh 0 in 6200 ft
Cold Springs Camp 0 in 6100 ft
Fourmile Lake 0 in 6000 ft
Billie Creek Divide 0 in 5300 ft
Fish Lake 0 in 4665 ft

Attività sismica

Città  Distanza Mag. Data & Ora
Non sono state riportate attività sismiche nelle vicinanze.
Minimo Magnitudo Mostrato è 2.5.

Temperature delle acque costiere

Località Temperatura
Nessun dato dalle stazioni

Stazioni meteo nelle vicinanze